Time;durP1;ratioP1;P1;durP2;ratioP2;P2;SDS_P1;SDS_P2;PMS_P1;PMS_P2;Temp;Humidity;BMP_temperature;BMP_pressure;BME280_temperature;BME280_humidity;BME280_pressure;Samples;Min_cycle;Max_cycle;Signal;HPM_P1;HPM_P2
2023/03/03 00:01:08;;;;;;;;;;;8.60;53.70;;;;;;4971820;28;19957;-92
2023/03/03 00:03:34;;;;;;;;;;;8.60;53.60;;;;;;4979426;28;20015;-93
2023/03/03 00:06:06;;;;;;;;;;;8.60;53.60;;;;;;4973190;28;19914;-93
2023/03/03 00:08:35;;;;;;;;;;;8.60;53.50;;;;;;4971067;28;19926;-94
2023/03/03 00:11:03;;;;;;;;;;;8.60;53.50;;;;;;4972295;28;20001;-91
2023/03/03 00:13:35;;;;;;;;;;;8.50;53.50;;;;;;4971515;28;19918;-93
2023/03/03 00:16:13;;;;;;;;;;;8.60;53.60;;;;;;4973174;28;19997;-91
2023/03/03 00:18:43;;;;;;;;;;;8.60;53.60;;;;;;4971075;28;20009;-93
2023/03/03 00:21:35;;;;;;;;;;;8.60;53.60;;;;;;4971493;28;19926;-93
2023/03/03 00:24:14;;;;;;;;;;;8.60;53.50;;;;;;4956822;28;20020;-92
2023/03/03 00:26:41;;;;;;;;;;;8.60;53.50;;;;;;4971866;28;20277;-91
2023/03/03 00:29:23;;;;;;;;;;;8.70;53.50;;;;;;4971487;28;19926;-91
2023/03/03 00:31:48;;;;;;;;;;;8.70;53.30;;;;;;4971392;28;19926;-92
2023/03/03 00:34:18;;;;;;;;;;;8.70;53.20;;;;;;4971851;28;19914;-92
2023/03/03 00:36:44;;;;;;;;;;;8.70;53.00;;;;;;4971712;28;19915;-91
2023/03/03 00:39:19;;;;;;;;;;;8.70;53.00;;;;;;4970348;28;20364;-90
2023/03/03 00:41:45;;;;;;;;;;;8.70;53.00;;;;;;4946892;29;19961;-91
2023/03/03 00:44:38;;;;;;;;;;;8.60;53.00;;;;;;4966434;28;19961;-90
2023/03/03 00:47:24;;;;;;;;;;;8.70;53.10;;;;;;4925239;28;19914;-90
2023/03/03 00:49:54;;;;;;;;;;;8.70;53.00;;;;;;4953227;28;19933;-91
2023/03/03 00:52:20;;;;;;;;;;;8.70;52.90;;;;;;4970580;28;20386;-91
2023/03/03 00:54:46;;;;;;;;;;;8.70;52.90;;;;;;4970477;28;20025;-90
2023/03/03 00:57:11;;;;;;;;;;;8.80;52.80;;;;;;4969494;28;20000;-91
2023/03/03 00:59:40;;;;;;;;;;;8.80;52.70;;;;;;4971064;28;19926;-90
2023/03/03 01:02:06;;;;;;;;;;;8.80;52.70;;;;;;4969299;28;19921;-91
2023/03/03 01:04:37;;;;;;;;;;;8.80;52.70;;;;;;4970759;28;19918;-93
2023/03/03 01:07:03;;;;;;;;;;;8.80;52.60;;;;;;4969939;28;19922;-90
2023/03/03 01:09:28;;;;;;;;;;;8.80;52.60;;;;;;4970983;28;19930;-91
2023/03/03 01:11:55;;;;;;;;;;;8.80;52.60;;;;;;4969254;28;19914;-93
2023/03/03 01:14:20;;;;;;;;;;;8.80;52.60;;;;;;4969748;28;20320;-91
2023/03/03 01:16:47;;;;;;;;;;;8.70;52.60;;;;;;4970819;28;19922;-93
2023/03/03 01:19:20;;;;;;;;;;;8.80;52.60;;;;;;4970713;28;19918;-91
2023/03/03 01:21:45;;;;;;;;;;;8.70;52.70;;;;;;4953012;28;20365;-92
2023/03/03 01:24:11;;;;;;;;;;;8.70;52.60;;;;;;4952930;28;19953;-91
2023/03/03 01:26:42;;;;;;;;;;;8.70;52.60;;;;;;4969559;28;19922;-89
2023/03/03 01:29:08;;;;;;;;;;;8.60;52.60;;;;;;4970506;28;20005;-92
2023/03/03 01:31:39;;;;;;;;;;;8.60;52.70;;;;;;4970601;28;20009;-92
2023/03/03 01:34:06;;;;;;;;;;;8.60;52.80;;;;;;4970360;28;19923;-90
2023/03/03 01:36:32;;;;;;;;;;;8.60;52.80;;;;;;4968077;28;19915;-91
2023/03/03 01:38:57;;;;;;;;;;;8.60;52.80;;;;;;4966258;28;19928;-91
2023/03/03 01:41:27;;;;;;;;;;;8.70;52.70;;;;;;4970932;28;19914;-92
2023/03/03 01:43:53;;;;;;;;;;;8.70;52.70;;;;;;4969576;28;19954;-90
2023/03/03 01:46:25;;;;;;;;;;;8.70;52.70;;;;;;4970140;28;19953;-91
2023/03/03 01:48:52;;;;;;;;;;;8.70;52.60;;;;;;4951186;28;20009;-91
2023/03/03 01:51:25;;;;;;;;;;;8.60;52.60;;;;;;4950781;28;20393;-90
2023/03/03 01:53:52;;;;;;;;;;;8.70;52.70;;;;;;4951092;28;19915;-90
2023/03/03 01:56:23;;;;;;;;;;;8.70;52.60;;;;;;4950825;28;19929;-88
2023/03/03 01:58:51;;;;;;;;;;;8.70;52.70;;;;;;4951364;29;19918;-90
2023/03/03 02:01:21;;;;;;;;;;;8.70;52.60;;;;;;4952611;28;20017;-90
2023/03/03 02:03:47;;;;;;;;;;;8.70;52.60;;;;;;4953905;28;20037;-92
2023/03/03 02:06:16;;;;;;;;;;;8.70;52.60;;;;;;4971671;28;20309;-90
2023/03/03 02:08:50;;;;;;;;;;;8.70;52.60;;;;;;4971653;28;19926;-89
2023/03/03 02:11:16;;;;;;;;;;;8.70;52.60;;;;;;4969733;28;19910;-90
2023/03/03 02:13:42;;;;;;;;;;;8.60;52.70;;;;;;4971228;28;19925;-92
2023/03/03 02:16:08;;;;;;;;;;;8.60;52.70;;;;;;4970893;28;20009;-91
2023/03/03 02:18:33;;;;;;;;;;;8.60;52.80;;;;;;4969568;28;20013;-93
2023/03/03 02:21:11;;;;;;;;;;;8.60;52.80;;;;;;4971343;28;19918;-92
2023/03/03 02:23:52;;;;;;;;;;;8.70;52.80;;;;;;4953865;28;19914;-94
2023/03/03 02:26:22;;;;;;;;;;;8.60;52.70;;;;;;4967923;28;19914;-91
2023/03/03 02:28:48;;;;;;;;;;;8.60;52.80;;;;;;4969687;28;19973;-90
2023/03/03 02:31:16;;;;;;;;;;;8.50;52.70;;;;;;4970894;28;19918;-91
2023/03/03 02:33:42;;;;;;;;;;;8.50;52.70;;;;;;4971153;28;19921;-91
2023/03/03 02:36:19;;;;;;;;;;;8.50;52.70;;;;;;4970821;28;20446;-94
2023/03/03 02:38:47;;;;;;;;;;;8.60;52.70;;;;;;4969661;28;20496;-90
2023/03/03 02:41:12;;;;;;;;;;;8.60;52.70;;;;;;4970790;28;19915;-90
2023/03/03 02:43:41;;;;;;;;;;;8.60;52.70;;;;;;4953673;28;19922;-90
2023/03/03 02:46:07;;;;;;;;;;;8.50;52.70;;;;;;4970613;28;19914;-89
2023/03/03 02:48:33;;;;;;;;;;;8.50;52.80;;;;;;4968101;28;19926;-90
2023/03/03 02:50:58;;;;;;;;;;;8.50;52.90;;;;;;4969797;28;19922;-91
2023/03/03 02:53:25;;;;;;;;;;;8.50;52.90;;;;;;4970599;28;20012;-93
2023/03/03 02:55:52;;;;;;;;;;;8.40;52.90;;;;;;4970042;28;19985;-91
2023/03/03 02:58:18;;;;;;;;;;;8.40;53.00;;;;;;4968280;28;19915;-93
2023/03/03 03:00:46;;;;;;;;;;;8.40;53.00;;;;;;4954999;28;19921;-91
2023/03/03 03:03:12;;;;;;;;;;;8.30;53.10;;;;;;4969539;28;20381;-91
2023/03/03 03:05:38;;;;;;;;;;;8.30;53.10;;;;;;4969383;28;19914;-90
2023/03/03 03:08:03;;;;;;;;;;;8.30;53.10;;;;;;4970446;28;20493;-93
2023/03/03 03:10:29;;;;;;;;;;;8.30;53.10;;;;;;4972563;28;19926;-93
2023/03/03 03:12:55;;;;;;;;;;;8.30;53.10;;;;;;4972512;28;20281;-93
2023/03/03 03:15:21;;;;;;;;;;;8.30;53.10;;;;;;4974042;28;19921;-90
2023/03/03 03:17:47;;;;;;;;;;;8.30;53.20;;;;;;4973200;28;19930;-91
2023/03/03 03:20:13;;;;;;;;;;;8.20;53.20;;;;;;4971912;28;19911;-91
2023/03/03 03:22:39;;;;;;;;;;;8.30;53.20;;;;;;4972087;28;20391;-91
2023/03/03 03:25:05;;;;;;;;;;;8.30;53.10;;;;;;4973451;28;19940;-92
2023/03/03 03:27:30;;;;;;;;;;;8.30;53.00;;;;;;4974016;28;20341;-91
2023/03/03 03:29:56;;;;;;;;;;;8.30;53.00;;;;;;4972248;28;19926;-90
2023/03/03 03:32:22;;;;;;;;;;;8.30;52.90;;;;;;4972045;28;19936;-91
2023/03/03 03:34:48;;;;;;;;;;;8.30;52.90;;;;;;4973520;28;19918;-93
2023/03/03 03:37:14;;;;;;;;;;;8.30;52.90;;;;;;4952033;28;19977;-91
2023/03/03 03:39:42;;;;;;;;;;;8.30;52.90;;;;;;4952762;28;19914;-90
2023/03/03 03:42:10;;;;;;;;;;;8.30;52.90;;;;;;4952790;28;20022;-92
2023/03/03 03:44:36;;;;;;;;;;;8.20;52.90;;;;;;4953210;28;20405;-91
2023/03/03 03:47:02;;;;;;;;;;;8.20;52.90;;;;;;4954484;28;19915;-93
2023/03/03 03:49:28;;;;;;;;;;;8.20;52.90;;;;;;4972049;28;19926;-92
2023/03/03 03:51:53;;;;;;;;;;;8.20;52.80;;;;;;4973382;28;19914;-91
2023/03/03 03:54:21;;;;;;;;;;;8.20;52.90;;;;;;4971915;28;19918;-90
2023/03/03 03:56:47;;;;;;;;;;;8.10;52.80;;;;;;4971231;28;19960;-90
2023/03/03 03:59:15;;;;;;;;;;;8.00;52.90;;;;;;4971386;28;19950;-91
2023/03/03 04:01:42;;;;;;;;;;;8.00;53.00;;;;;;4971403;28;19915;-93
2023/03/03 04:04:09;;;;;;;;;;;8.00;53.10;;;;;;4973726;28;20013;-92
2023/03/03 04:06:34;;;;;;;;;;;7.90;53.00;;;;;;4971392;28;20410;-92
2023/03/03 04:09:00;;;;;;;;;;;7.90;53.10;;;;;;4972647;28;19966;-90
2023/03/03 04:11:26;;;;;;;;;;;7.80;53.10;;;;;;4972718;28;19914;-92
2023/03/03 04:13:52;;;;;;;;;;;7.80;53.20;;;;;;4972206;28;19958;-90
2023/03/03 04:16:17;;;;;;;;;;;7.80;53.30;;;;;;4971233;28;19915;-91
2023/03/03 04:18:43;;;;;;;;;;;7.80;53.40;;;;;;4971685;28;19922;-92
2023/03/03 04:21:12;;;;;;;;;;;7.80;53.30;;;;;;4972871;28;19918;-91
2023/03/03 04:23:38;;;;;;;;;;;7.80;53.20;;;;;;4968795;28;19957;-91
2023/03/03 04:26:07;;;;;;;;;;;7.80;53.30;;;;;;4968519;28;19955;-92
2023/03/03 04:28:36;;;;;;;;;;;7.80;53.20;;;;;;4951873;28;20025;-91
2023/03/03 04:31:03;;;;;;;;;;;7.80;53.30;;;;;;4952973;28;19942;-90
2023/03/03 04:33:29;;;;;;;;;;;7.80;53.30;;;;;;4953652;28;20358;-93
2023/03/03 04:35:57;;;;;;;;;;;7.80;53.20;;;;;;4968633;28;20049;-91
2023/03/03 04:38:22;;;;;;;;;;;7.80;53.20;;;;;;4959820;28;19915;-93
2023/03/03 04:40:48;;;;;;;;;;;7.80;53.10;;;;;;4971063;28;19918;-91
2023/03/03 04:43:14;;;;;;;;;;;7.80;53.10;;;;;;4970762;28;20298;-90
2023/03/03 04:45:39;;;;;;;;;;;7.80;53.00;;;;;;4971484;28;19922;-91
2023/03/03 04:48:05;;;;;;;;;;;7.80;53.10;;;;;;4971988;28;20270;-91
2023/03/03 04:50:31;;;;;;;;;;;7.80;53.00;;;;;;4971631;28;20313;-92
2023/03/03 04:52:59;;;;;;;;;;;7.90;53.00;;;;;;4971989;28;20246;-92
2023/03/03 04:55:25;;;;;;;;;;;7.90;52.90;;;;;;4970351;28;19918;-91
2023/03/03 04:57:54;;;;;;;;;;;7.90;52.90;;;;;;4970542;28;19918;-91
2023/03/03 05:00:20;;;;;;;;;;;7.90;52.80;;;;;;4970351;28;19961;-93
2023/03/03 05:02:47;;;;;;;;;;;7.90;52.80;;;;;;4970851;28;20004;-93
2023/03/03 05:05:13;;;;;;;;;;;7.80;52.90;;;;;;4967143;28;19914;-91
2023/03/03 05:07:39;;;;;;;;;;;7.80;52.90;;;;;;4950971;28;19936;-92
2023/03/03 05:10:05;;;;;;;;;;;7.80;52.90;;;;;;4967382;28;19923;-91
2023/03/03 05:12:31;;;;;;;;;;;7.80;53.00;;;;;;4951132;28;19921;-92
2023/03/03 05:14:57;;;;;;;;;;;7.80;53.10;;;;;;4967541;28;19914;-90
2023/03/03 05:17:23;;;;;;;;;;;7.80;53.20;;;;;;4952334;28;20338;-91
2023/03/03 05:19:52;;;;;;;;;;;7.70;53.30;;;;;;4966789;28;19954;-90
2023/03/03 05:22:17;;;;;;;;;;;7.70;53.40;;;;;;4966872;28;19914;-92
2023/03/03 05:24:47;;;;;;;;;;;7.70;53.40;;;;;;4953101;28;19918;-90
2023/03/03 05:27:13;;;;;;;;;;;7.70;53.50;;;;;;4952402;28;20856;-91
2023/03/03 05:29:45;;;;;;;;;;;7.70;53.60;;;;;;4951938;28;19927;-92
2023/03/03 05:32:15;;;;;;;;;;;7.60;53.80;;;;;;4969876;28;20372;-90
2023/03/03 05:34:42;;;;;;;;;;;7.60;53.90;;;;;;4971603;28;19968;-92
2023/03/03 05:37:08;;;;;;;;;;;7.60;53.90;;;;;;4969712;28;19918;-92
2023/03/03 05:39:37;;;;;;;;;;;7.60;54.00;;;;;;4969761;28;19918;-91
2023/03/03 05:42:07;;;;;;;;;;;7.50;54.10;;;;;;4970797;28;21558;-92
2023/03/03 05:44:34;;;;;;;;;;;7.50;54.30;;;;;;4967118;28;19914;-93
2023/03/03 05:47:03;;;;;;;;;;;7.50;54.30;;;;;;4958462;28;20021;-90
2023/03/03 05:49:29;;;;;;;;;;;7.50;54.40;;;;;;4976050;28;19921;-91
2023/03/03 05:51:55;;;;;;;;;;;7.50;54.40;;;;;;4989319;28;19943;-91
2023/03/03 05:54:23;;;;;;;;;;;7.50;54.30;;;;;;4967824;28;20008;-92
2023/03/03 05:56:50;;;;;;;;;;;7.60;54.20;;;;;;4969663;28;19962;-92
2023/03/03 05:59:18;;;;;;;;;;;7.60;54.20;;;;;;4968454;28;19914;-92
2023/03/03 06:01:44;;;;;;;;;;;7.60;54.10;;;;;;4960496;28;20235;-90
2023/03/03 06:04:12;;;;;;;;;;;7.60;54.10;;;;;;4966553;28;19948;-90
2023/03/03 06:06:38;;;;;;;;;;;7.60;53.90;;;;;;4967647;28;19981;-88
2023/03/03 06:09:03;;;;;;;;;;;7.60;53.80;;;;;;4969205;28;19922;-89
2023/03/03 06:11:29;;;;;;;;;;;7.50;53.70;;;;;;4968957;28;19922;-90
2023/03/03 06:13:57;;;;;;;;;;;7.50;53.70;;;;;;4968842;28;20402;-93
2023/03/03 06:16:23;;;;;;;;;;;7.50;53.70;;;;;;4968811;28;19954;-89
2023/03/03 06:18:51;;;;;;;;;;;7.50;53.50;;;;;;4965720;28;20471;-91
2023/03/03 06:21:17;;;;;;;;;;;7.50;53.50;;;;;;4966112;28;19922;-89
2023/03/03 06:23:44;;;;;;;;;;;7.60;53.50;;;;;;4951421;28;19911;-90
2023/03/03 06:26:11;;;;;;;;;;;7.50;53.60;;;;;;4965830;28;19925;-92
2023/03/03 06:28:37;;;;;;;;;;;7.50;53.60;;;;;;4965990;28;19914;-88
2023/03/03 06:31:05;;;;;;;;;;;7.50;53.60;;;;;;4953604;28;19941;-88
2023/03/03 06:33:31;;;;;;;;;;;7.50;53.60;;;;;;4972946;28;20009;-90
2023/03/03 06:35:59;;;;;;;;;;;7.50;53.50;;;;;;4967404;28;20042;-91
2023/03/03 06:38:26;;;;;;;;;;;7.50;53.40;;;;;;4968153;28;19923;-89
2023/03/03 06:40:57;;;;;;;;;;;7.50;53.50;;;;;;4981954;28;19921;-92
2023/03/03 06:43:27;;;;;;;;;;;7.50;53.60;;;;;;4989416;28;19941;-90
2023/03/03 06:46:10;;;;;;;;;;;7.50;53.70;;;;;;4964956;28;19949;-93
2023/03/03 06:48:39;;;;;;;;;;;7.50;53.60;;;;;;4958268;28;19969;-88
2023/03/03 06:51:13;;;;;;;;;;;7.50;53.60;;;;;;4973118;28;19914;-91
2023/03/03 06:53:39;;;;;;;;;;;7.60;53.60;;;;;;4971266;28;19957;-90
2023/03/03 06:56:07;;;;;;;;;;;7.60;53.60;;;;;;4971055;28;19953;-91
2023/03/03 06:59:12;;;;;;;;;;;;;;;;;;;;;
2023/03/03 07:01:38;;;;;;;;;;;7.70;53.50;;;;;;4967795;28;19918;-90
2023/03/03 07:04:38;;;;;;;;;;;7.70;53.30;;;;;;4971141;28;20009;-92
2023/03/03 07:07:32;;;;;;;;;;;7.70;53.30;;;;;;4950096;28;19921;-90
2023/03/03 07:09:59;;;;;;;;;;;7.80;53.40;;;;;;4979632;28;19933;-91
2023/03/03 07:12:31;;;;;;;;;;;7.70;53.40;;;;;;4981023;28;20278;-88
2023/03/03 07:15:11;;;;;;;;;;;7.80;53.30;;;;;;4979812;28;19926;-92
2023/03/03 07:17:45;;;;;;;;;;;7.80;53.40;;;;;;4961389;28;20017;-87
2023/03/03 07:20:43;;;;;;;;;;;7.70;53.40;;;;;;4962364;28;19958;-91
2023/03/03 07:23:23;;;;;;;;;;;7.70;53.30;;;;;;4970820;28;20535;-89
2023/03/03 07:25:49;;;;;;;;;;;7.80;53.30;;;;;;4967327;28;19964;-91
2023/03/03 07:28:28;;;;;;;;;;;7.80;53.30;;;;;;4971099;28;20692;-91
2023/03/03 07:30:59;;;;;;;;;;;7.80;53.10;;;;;;4968615;28;19969;-92
2023/03/03 07:33:44;;;;;;;;;;;7.80;53.20;;;;;;4970513;28;20318;-92
2023/03/03 07:36:39;;;;;;;;;;;7.90;53.10;;;;;;4969200;28;20428;-90
2023/03/03 07:39:23;;;;;;;;;;;7.90;53.00;;;;;;4961950;28;20975;-91
2023/03/03 07:41:51;;;;;;;;;;;8.00;52.70;;;;;;4960026;28;19941;-92
2023/03/03 07:44:23;;;;;;;;;;;8.00;52.80;;;;;;4974425;28;19918;-91
2023/03/03 07:47:09;;;;;;;;;;;8.00;52.60;;;;;;4952610;28;19955;-93
2023/03/03 07:49:35;;;;;;;;;;;8.20;52.50;;;;;;4972778;28;19949;-91
2023/03/03 07:52:38;;;;;;;;;;;8.20;52.40;;;;;;4986410;28;19928;-91
2023/03/03 07:55:18;;;;;;;;;;;8.20;52.20;;;;;;4971443;28;19914;-91
2023/03/03 07:57:55;;;;;;;;;;;8.10;52.20;;;;;;4972007;28;20150;-91
2023/03/03 08:00:29;;;;;;;;;;;8.20;52.20;;;;;;4971879;28;19918;-94
2023/03/03 08:03:12;;;;;;;;;;;8.30;52.10;;;;;;4955944;28;19925;-94
2023/03/03 08:05:49;;;;;;;;;;;8.30;52.10;;;;;;4977959;28;19918;-92
2023/03/03 08:08:36;;;;;;;;;;;8.40;52.00;;;;;;4972216;28;19914;-91
2023/03/03 08:11:08;;;;;;;;;;;8.40;52.10;;;;;;4974600;28;19922;-91
2023/03/03 08:13:37;;;;;;;;;;;8.60;52.00;;;;;;4971694;28;19930;-90
2023/03/03 08:16:09;;;;;;;;;;;8.60;51.80;;;;;;4957902;28;19919;-92
2023/03/03 08:18:49;;;;;;;;;;;8.70;51.50;;;;;;4959848;28;19961;-91
2023/03/03 08:21:15;;;;;;;;;;;8.70;51.20;;;;;;4979048;28;19918;-89
2023/03/03 08:23:41;;;;;;;;;;;8.70;51.10;;;;;;4981736;28;19913;-92
2023/03/03 08:26:17;;;;;;;;;;;8.70;50.90;;;;;;4978556;28;19914;-92
2023/03/03 08:28:43;;;;;;;;;;;8.70;50.70;;;;;;4971662;28;19918;-89
2023/03/03 08:31:09;;;;;;;;;;;8.70;50.80;;;;;;4960410;28;19925;-91
2023/03/03 08:33:42;;;;;;;;;;;8.80;50.90;;;;;;4975889;28;19973;-92
2023/03/03 08:36:09;;;;;;;;;;;8.80;50.80;;;;;;4957678;28;19944;-94
2023/03/03 08:39:26;;;;;;;;;;;8.80;50.90;;;;;;4969072;28;20371;-91
2023/03/03 08:41:50;;;;;;;;;;;9.00;50.90;;;;;;4938439;28;19911;-90
2023/03/03 08:44:16;;;;;;;;;;;9.10;50.80;;;;;;4964531;28;20001;-90
2023/03/03 08:46:42;;;;;;;;;;;9.20;50.60;;;;;;4972354;28;20337;-90
2023/03/03 08:49:58;;;;;;;;;;;;;;;;;;;;;
2023/03/03 08:52:20;;;;;;;;;;;9.40;50.50;;;;;;4969880;28;19914;-91
2023/03/03 08:54:48;;;;;;;;;;;9.50;50.40;;;;;;4968773;28;19918;-88
2023/03/03 08:57:14;;;;;;;;;;;9.60;49.90;;;;;;4969491;28;19925;-93
2023/03/03 08:59:39;;;;;;;;;;;9.50;49.60;;;;;;4950808;29;19915;-91
2023/03/03 09:02:23;;;;;;;;;;;;;;;;;;;;;
2023/03/03 09:04:58;;;;;;;;;;;9.60;49.50;;;;;;4964493;28;19914;-91
2023/03/03 09:07:28;;;;;;;;;;;9.70;49.20;;;;;;4951670;28;19969;-92
2023/03/03 09:10:08;;;;;;;;;;;;;;;;;;;;;
2023/03/03 09:12:39;;;;;;;;;;;9.80;49.40;;;;;;4962549;28;19925;-92
2023/03/03 09:15:27;;;;;;;;;;;10.00;49.30;;;;;;4968477;28;19922;-91
2023/03/03 09:18:13;;;;;;;;;;;10.00;48.90;;;;;;4968484;28;20305;-90
2023/03/03 09:27:40;;;;;;;;;;;;;;;;;;;;;
2023/03/03 09:30:32;;;;;;;;;;;10.40;48.30;;;;;;4929782;28;20005;-94
2023/03/03 09:33:27;;;;;;;;;;;;;;;;;;;;;
2023/03/03 09:36:18;;;;;;;;;;;;;;;;;;;;;
2023/03/03 09:39:11;;;;;;;;;;;11.00;48.40;;;;;;4966390;28;19914;-94
2023/03/03 09:44:42;;;;;;;;;;;11.50;48.10;;;;;;4960737;28;19910;-93
2023/03/03 09:47:19;;;;;;;;;;;11.60;46.80;;;;;;4969230;28;19918;-90
2023/03/03 09:50:01;;;;;;;;;;;;;;;;;;;;;
2023/03/03 09:52:36;;;;;;;;;;;11.70;46.20;;;;;;4973176;28;19940;-92
2023/03/03 09:55:23;;;;;;;;;;;;;;;;;;;;;
2023/03/03 09:57:56;;;;;;;;;;;11.70;46.00;;;;;;4964076;28;20284;-92
2023/03/03 10:00:42;;;;;;;;;;;11.70;46.00;;;;;;4968415;28;20270;-90
2023/03/03 10:03:40;;;;;;;;;;;11.80;45.90;;;;;;4962614;28;19926;-91
2023/03/03 10:06:42;;;;;;;;;;;11.80;45.70;;;;;;4911999;28;19918;-92
2023/03/03 10:09:27;;;;;;;;;;;11.90;45.00;;;;;;4973009;28;20013;-92
2023/03/03 10:12:04;;;;;;;;;;;11.80;45.10;;;;;;4981187;28;19914;-89
2023/03/03 10:14:38;;;;;;;;;;;11.90;45.10;;;;;;4982115;28;19925;-93
2023/03/03 10:17:25;;;;;;;;;;;11.90;44.80;;;;;;4973414;28;19929;-92
2023/03/03 10:20:03;;;;;;;;;;;12.00;44.70;;;;;;4981016;28;19917;-92
2023/03/03 10:22:49;;;;;;;;;;;11.90;44.50;;;;;;4974165;28;19915;-95
2023/03/03 10:25:28;;;;;;;;;;;11.90;44.50;;;;;;4982654;28;19922;-91
2023/03/03 10:28:05;;;;;;;;;;;12.00;44.50;;;;;;4972738;28;19945;-94
2023/03/03 10:30:53;;;;;;;;;;;12.00;44.20;;;;;;4952084;28;19933;-90
2023/03/03 10:39:48;;;;;;;;;;;12.30;44.00;;;;;;4969509;28;19925;-92
2023/03/03 10:42:13;;;;;;;;;;;12.40;43.40;;;;;;4977709;28;20528;-91
2023/03/03 10:45:00;;;;;;;;;;;12.40;43.50;;;;;;4975359;28;20008;-90
2023/03/03 10:47:35;;;;;;;;;;;12.50;43.30;;;;;;4958914;28;20273;-91
2023/03/03 10:50:18;;;;;;;;;;;12.70;43.80;;;;;;4972871;28;19926;-91
2023/03/03 10:53:02;;;;;;;;;;;12.80;44.10;;;;;;4959141;28;19922;-95
2023/03/03 10:58:39;;;;;;;;;;;13.20;43.30;;;;;;4965195;28;20285;-93
2023/03/03 11:01:14;;;;;;;;;;;;;;;;;;;;;
2023/03/03 11:03:56;;;;;;;;;;;;;;;;;;;;;
2023/03/03 11:10:00;;;;;;;;;;;13.20;41.90;;;;;;4902492;29;19929;-92
2023/03/03 11:13:07;;;;;;;;;;;;;;;;;;;;;
2023/03/03 11:16:13;;;;;;;;;;;;;;;;;;;;;
2023/03/03 11:25:09;;;;;;;;;;;14.40;41.90;;;;;;4971584;28;19918;-90
2023/03/03 11:27:34;;;;;;;;;;;14.60;41.20;;;;;;4967145;28;19930;-89
2023/03/03 11:30:09;;;;;;;;;;;14.80;41.10;;;;;;4956412;28;20263;-92
2023/03/03 11:33:02;;;;;;;;;;;14.80;40.50;;;;;;4986275;28;19925;-92
2023/03/03 11:35:31;;;;;;;;;;;14.90;40.50;;;;;;4958735;28;19944;-94
2023/03/03 11:38:16;;;;;;;;;;;;;;;;;;;;;
2023/03/03 11:40:44;;;;;;;;;;;15.20;40.50;;;;;;4970752;28;19922;-91
2023/03/03 11:43:39;;;;;;;;;;;;;;;;;;;;;
2023/03/03 11:46:26;;;;;;;;;;;15.30;38.40;;;;;;4920635;29;20003;-88
2023/03/03 11:49:15;;;;;;;;;;;15.30;38.50;;;;;;4920072;29;19970;-92
2023/03/03 11:51:50;;;;;;;;;;;15.30;38.60;;;;;;4921858;29;19931;-91
2023/03/03 11:54:48;;;;;;;;;;;15.30;39.10;;;;;;4926872;29;19933;-93
2023/03/03 11:57:40;;;;;;;;;;;15.40;39.40;;;;;;4894662;29;19923;-89
2023/03/03 12:00:28;;;;;;;;;;;;;;;;;;;;;
2023/03/03 12:06:27;;;;;;;;;;;16.30;39.40;;;;;;4934193;29;19911;-93
2023/03/03 12:09:07;;;;;;;;;;;16.60;38.90;;;;;;4985022;28;19976;-92
2023/03/03 12:11:36;;;;;;;;;;;16.90;39.00;;;;;;5025899;28;19956;-93
2023/03/03 12:14:11;;;;;;;;;;;17.10;38.50;;;;;;4996258;28;19988;-89
2023/03/03 12:20:21;;;;;;;;;;;;;;;;;;;;;
2023/03/03 12:23:22;;;;;;;;;;;17.30;37.80;;;;;;5011573;28;20013;-91
2023/03/03 12:26:29;;;;;;;;;;;17.30;37.80;;;;;;5006164;28;19927;-90
2023/03/03 12:29:04;;;;;;;;;;;17.30;37.60;;;;;;4979660;28;19929;-89
2023/03/03 12:34:53;;;;;;;;;;;17.20;37.50;;;;;;4974488;28;20854;-93
2023/03/03 12:40:30;;;;;;;;;;;;;;;;;;;;;
2023/03/03 12:43:14;;;;;;;;;;;17.00;36.60;;;;;;5010170;28;20342;-90
2023/03/03 12:45:52;;;;;;;;;;;17.00;35.50;;;;;;5015965;28;19929;-94
2023/03/03 12:48:27;;;;;;;;;;;;;;;;;;;;;
2023/03/03 12:51:29;;;;;;;;;;;;;;;;;;;;;
2023/03/03 12:54:27;;;;;;;;;;;;;;;;;;;;;
2023/03/03 13:00:39;;;;;;;;;;;;;;;;;;;;;
2023/03/03 13:06:02;;;;;;;;;;;;;;;;;;;;;
2023/03/03 13:08:51;;;;;;;;;;;18.70;34.20;;;;;;5055653;28;20012;-90
2023/03/03 13:11:33;;;;;;;;;;;18.50;34.40;;;;;;5054005;28;19979;-92
2023/03/03 13:17:51;;;;;;;;;;;18.70;33.70;;;;;;5036743;28;19935;-90
2023/03/03 13:20:45;;;;;;;;;;;;;;;;;;;;;
2023/03/03 13:23:38;;;;;;;;;;;;;;;;;;;;;
2023/03/03 13:26:41;;;;;;;;;;;17.50;33.30;;;;;;5037805;28;20470;-91
2023/03/03 13:35:25;;;;;;;;;;;16.30;34.20;;;;;;4915314;28;19949;-91
2023/03/03 13:47:50;;;;;;;;;;;15.60;36.20;;;;;;4960830;28;19941;-94
2023/03/03 13:50:37;;;;;;;;;;;15.40;36.40;;;;;;4952819;28;19925;-91
2023/03/03 13:53:40;;;;;;;;;;;;;;;;;;;;;
2023/03/03 13:56:35;;;;;;;;;;;15.60;36.90;;;;;;5022253;28;19935;-89
2023/03/03 13:59:30;;;;;;;;;;;15.60;36.50;;;;;;5017848;28;20420;-92
2023/03/03 14:01:59;;;;;;;;;;;15.40;36.40;;;;;;5028274;28;20418;-89
2023/03/03 14:04:24;;;;;;;;;;;15.20;36.20;;;;;;5031156;28;19928;-95
2023/03/03 14:07:26;;;;;;;;;;;;;;;;;;;;;
2023/03/03 14:10:25;;;;;;;;;;;;;;;;;;;;;
2023/03/03 14:13:02;;;;;;;;;;;14.60;37.20;;;;;;5054305;28;19992;-93
2023/03/03 14:15:35;;;;;;;;;;;14.30;37.40;;;;;;5037037;28;20325;-90
2023/03/03 14:18:40;;;;;;;;;;;14.00;37.90;;;;;;5049497;28;19975;-91
2023/03/03 14:21:29;;;;;;;;;;;13.80;38.30;;;;;;5010938;28;20497;-91
2023/03/03 14:24:37;;;;;;;;;;;;;;;;;;;;;
2023/03/03 14:29:36;;;;;;;;;;;13.30;39.60;;;;;;5048538;28;19995;-92
2023/03/03 14:35:19;;;;;;;;;;;13.30;40.10;;;;;;5029912;23;19995;-90
2023/03/03 14:46:53;;;;;;;;;;;12.30;40.80;;;;;;4999589;28;19948;-94
2023/03/03 14:49:59;;;;;;;;;;;;;;;;;;;;;
2023/03/03 14:55:38;;;;;;;;;;;11.70;42.00;;;;;;4945254;28;20025;-91
2023/03/03 15:01:27;;;;;;;;;;;11.40;42.50;;;;;;5008744;28;19960;-90
2023/03/03 15:04:16;;;;;;;;;;;11.30;42.80;;;;;;5008690;28;19920;-89
2023/03/03 15:06:42;;;;;;;;;;;11.20;43.10;;;;;;4993386;28;20554;-89
2023/03/03 15:09:31;;;;;;;;;;;11.10;43.20;;;;;;4988286;28;19943;-91
2023/03/03 15:12:12;;;;;;;;;;;;;;;;;;;;;
2023/03/03 15:15:04;;;;;;;;;;;11.00;43.50;;;;;;5005901;28;19924;-93
2023/03/03 15:17:36;;;;;;;;;;;10.90;43.70;;;;;;4993187;28;19909;-91
2023/03/03 15:20:12;;;;;;;;;;;10.80;43.70;;;;;;5009696;28;20450;-91
2023/03/03 15:23:05;;;;;;;;;;;;;;;;;;;;;
2023/03/03 15:25:38;;;;;;;;;;;10.80;44.20;;;;;;5013038;28;19927;-93
2023/03/03 15:28:21;;;;;;;;;;;10.70;44.50;;;;;;5011329;28;19929;-91
2023/03/03 15:31:11;;;;;;;;;;;10.70;44.90;;;;;;5006148;28;20016;-91
2023/03/03 15:34:02;;;;;;;;;;;10.60;44.80;;;;;;5015662;28;19980;-93
2023/03/03 15:36:36;;;;;;;;;;;10.60;44.90;;;;;;5014697;28;19940;-94
2023/03/03 15:39:15;;;;;;;;;;;10.60;45.00;;;;;;4992524;28;19922;-91
2023/03/03 15:41:47;;;;;;;;;;;10.60;44.90;;;;;;4997366;28;19924;-90
2023/03/03 15:44:30;;;;;;;;;;;10.60;44.90;;;;;;5012855;28;19921;-92
2023/03/03 15:47:32;;;;;;;;;;;10.50;45.10;;;;;;5013912;28;19914;-94
2023/03/03 15:50:07;;;;;;;;;;;10.50;45.20;;;;;;4991541;28;19925;-90
2023/03/03 15:52:49;;;;;;;;;;;10.50;45.10;;;;;;4997499;28;19917;-91
2023/03/03 15:55:30;;;;;;;;;;;10.50;45.00;;;;;;4997758;28;19921;-90
2023/03/03 15:58:08;;;;;;;;;;;10.50;45.00;;;;;;4994980;28;19913;-92
2023/03/03 16:00:58;;;;;;;;;;;10.40;45.10;;;;;;4997818;28;19925;-93
2023/03/03 16:03:30;;;;;;;;;;;10.40;45.10;;;;;;4996698;28;19917;-90
2023/03/03 16:06:15;;;;;;;;;;;10.40;45.10;;;;;;5016930;28;19935;-90
2023/03/03 16:09:01;;;;;;;;;;;10.30;45.10;;;;;;4993454;28;20363;-91
2023/03/03 16:11:45;;;;;;;;;;;;;;;;;;;;;
2023/03/03 16:14:17;;;;;;;;;;;10.30;45.20;;;;;;5016064;28;19985;-91
2023/03/03 16:16:52;;;;;;;;;;;10.30;45.20;;;;;;5001291;28;20317;-91
2023/03/03 16:19:21;;;;;;;;;;;10.30;45.20;;;;;;5015020;28;19914;-91
2023/03/03 16:21:56;;;;;;;;;;;10.20;45.30;;;;;;5011063;28;20414;-91
2023/03/03 16:24:28;;;;;;;;;;;10.20;45.30;;;;;;5012914;28;19913;-95
2023/03/03 16:27:20;;;;;;;;;;;10.20;45.30;;;;;;5002185;28;19914;-89
2023/03/03 16:30:04;;;;;;;;;;;10.20;45.30;;;;;;4981387;28;20426;-89
2023/03/03 16:32:48;;;;;;;;;;;10.10;45.30;;;;;;5001663;28;19940;-89
2023/03/03 16:35:16;;;;;;;;;;;10.10;45.30;;;;;;5014952;28;19926;-90
2023/03/03 16:37:49;;;;;;;;;;;10.00;45.40;;;;;;4994597;28;19997;-91
2023/03/03 16:40:17;;;;;;;;;;;10.00;45.50;;;;;;4998664;28;19928;-91
2023/03/03 16:42:43;;;;;;;;;;;9.90;45.50;;;;;;5019483;28;19921;-91
2023/03/03 16:45:23;;;;;;;;;;;9.90;45.50;;;;;;5016362;28;19906;-91
2023/03/03 16:47:52;;;;;;;;;;;9.80;45.50;;;;;;4992956;28;19920;-90
2023/03/03 16:50:25;;;;;;;;;;;9.80;45.50;;;;;;4996299;28;19933;-89
2023/03/03 16:52:55;;;;;;;;;;;9.70;45.50;;;;;;4987670;28;19924;-92
2023/03/03 16:55:25;;;;;;;;;;;9.60;45.50;;;;;;4996638;28;20178;-94
2023/03/03 16:58:23;;;;;;;;;;;9.50;45.50;;;;;;5016087;28;19937;-94
2023/03/03 17:01:13;;;;;;;;;;;9.50;45.50;;;;;;4991766;28;19921;-94
2023/03/03 17:03:50;;;;;;;;;;;9.30;45.60;;;;;;5019208;28;19920;-91
2023/03/03 17:06:40;;;;;;;;;;;9.20;45.70;;;;;;5011940;28;20327;-90
2023/03/03 17:09:22;;;;;;;;;;;9.20;45.70;;;;;;4987650;28;19932;-90
2023/03/03 17:12:05;;;;;;;;;;;9.10;45.80;;;;;;5020485;28;19913;-90
2023/03/03 17:14:49;;;;;;;;;;;9.00;46.10;;;;;;4992900;28;19929;-92